createdAt,value
2018-12-22T00:00:21.492Z,980.49
2018-12-22T00:03:51.517Z,980.56
2018-12-22T00:07:21.654Z,980.02
2018-12-22T00:10:51.767Z,979.6
2018-12-22T00:14:21.857Z,979.55
2018-12-22T00:17:51.907Z,979.52
2018-12-22T00:21:22.447Z,979.41
2018-12-22T00:24:52.358Z,979.58
2018-12-22T00:28:22.565Z,979.87
2018-12-22T00:31:52.742Z,979.91
2018-12-22T00:35:22.695Z,979.92
2018-12-22T00:38:52.805Z,980.13
2018-12-22T00:42:22.897Z,980.48
2018-12-22T00:45:52.903Z,981.15
2018-12-22T00:49:23.029Z,980.9
2018-12-22T00:52:53.180Z,980.48
2018-12-22T00:56:23.221Z,980.01
2018-12-22T00:59:53.172Z,979.96
2018-12-22T01:03:23.224Z,980.38
2018-12-22T01:06:53.356Z,980.35
2018-12-22T01:10:23.427Z,980.66
2018-12-22T01:13:53.468Z,980.89
2018-12-22T01:17:23.469Z,980.96
2018-12-22T01:20:53.509Z,980.71
2018-12-22T01:24:23.580Z,980.35
2018-12-22T01:27:53.632Z,981.44
2018-12-22T01:31:23.664Z,982
2018-12-22T01:34:53.664Z,982.29
2018-12-22T01:38:23.725Z,981.93
2018-12-22T01:41:53.725Z,982.05
2018-12-22T01:45:23.737Z,982.42
2018-12-22T01:48:53.738Z,982.23
2018-12-22T01:52:24.079Z,982.32
2018-12-22T01:55:54.060Z,982.55
2018-12-22T01:59:24.163Z,982.4
2018-12-22T02:00:16.381Z,982.64
2018-12-22T02:03:46.442Z,982.36
2018-12-22T02:07:16.435Z,982.83
2018-12-22T02:10:46.544Z,982.82
2018-12-22T02:14:16.636Z,983.05
2018-12-22T02:17:46.724Z,983.43
2018-12-22T02:21:16.717Z,983.4
2018-12-22T02:24:46.888Z,983.51
2018-12-22T02:28:17.019Z,983.91
2018-12-22T02:31:47.025Z,984.33
2018-12-22T02:35:17.182Z,984.68
2018-12-22T02:38:47.212Z,984.9
2018-12-22T02:42:17.414Z,985.37
2018-12-22T02:45:47.344Z,984.92
2018-12-22T02:49:17.294Z,983.99
2018-12-22T02:52:47.226Z,983.73
2018-12-22T02:56:17.259Z,983.43
2018-12-22T02:59:47.222Z,984.46
2018-12-22T03:03:17.274Z,984.46
2018-12-22T03:06:47.261Z,985.13
2018-12-22T03:10:17.402Z,984.89
2018-12-22T03:13:47.471Z,984.82
2018-12-22T03:17:17.585Z,984.55
2018-12-22T03:20:47.615Z,984.45
2018-12-22T03:24:17.947Z,984.2
2018-12-22T03:27:48.197Z,983.86
2018-12-22T03:31:18.189Z,983.48
2018-12-22T03:34:48.240Z,983.16
2018-12-22T03:38:18.240Z,983.13
2018-12-22T03:41:48.286Z,983.02
2018-12-22T03:45:18.383Z,983.04
2018-12-22T03:48:48.503Z,983.45
2018-12-22T03:52:18.595Z,983.93
2018-12-22T03:55:48.861Z,984.27
2018-12-22T03:59:24.746Z,984.68
2018-12-22T04:00:16.290Z,985.08
2018-12-22T04:03:46.367Z,985.13
2018-12-22T04:07:16.497Z,984.82
2018-12-22T04:10:46.579Z,984.71
2018-12-22T04:14:16.662Z,984.52
2018-12-22T04:17:46.700Z,984.04
2018-12-22T04:21:16.691Z,984.39
2018-12-22T04:24:46.733Z,984.37
2018-12-22T04:28:16.928Z,984.62
2018-12-22T04:31:46.919Z,984.91
2018-12-22T04:35:16.927Z,985.14
2018-12-22T04:38:47.026Z,985.26
2018-12-22T04:42:17.168Z,985.16
2018-12-22T04:45:47.128Z,985.03
2018-12-22T04:49:17.562Z,984.64
2018-12-22T04:52:47.589Z,984.74
2018-12-22T04:56:17.581Z,984.77
2018-12-22T04:59:47.642Z,984.82
2018-12-22T05:03:17.764Z,984.83
2018-12-22T05:06:47.776Z,984.88
2018-12-22T05:10:17.969Z,984.79
2018-12-22T05:13:47.926Z,984.73
2018-12-22T05:17:17.898Z,984.73
2018-12-22T05:20:47.938Z,984.66
2018-12-22T05:24:17.949Z,985.31
2018-12-22T05:27:47.981Z,985.29
2018-12-22T05:31:18.180Z,985.4
2018-12-22T05:34:48.182Z,985.53
2018-12-22T05:38:18.183Z,985.48
2018-12-22T05:41:48.143Z,985.53
2018-12-22T05:45:18.170Z,986.08
2018-12-22T05:48:48.188Z,985.91
2018-12-22T05:52:18.199Z,985.85
2018-12-22T05:55:48.178Z,985.71
2018-12-22T05:59:18.208Z,985.86
2018-12-22T06:00:16.764Z,985.98
2018-12-22T06:03:46.840Z,986.45
2018-12-22T06:07:16.941Z,987.27
2018-12-22T06:10:46.952Z,987.62
2018-12-22T06:14:16.983Z,988.65
2018-12-22T06:17:47.075Z,989.82
2018-12-22T06:21:17.175Z,990.82
2018-12-22T06:24:47.234Z,991.51
2018-12-22T06:28:17.266Z,991.86
2018-12-22T06:31:47.529Z,992.01
2018-12-22T06:35:17.629Z,991.96
2018-12-22T06:38:47.631Z,991.34
2018-12-22T06:42:17.802Z,990.83
2018-12-22T06:45:47.773Z,990.76
2018-12-22T06:49:17.934Z,991.29
2018-12-22T06:52:47.960Z,991.91
2018-12-22T06:56:18.192Z,991.86
2018-12-22T06:59:48.130Z,991.71
2018-12-22T07:03:18.259Z,991.63
2018-12-22T07:06:48.320Z,991.88
2018-12-22T07:10:18.411Z,992.35
2018-12-22T07:13:48.422Z,992.05
2018-12-22T07:17:18.493Z,992.28
2018-12-22T07:20:48.535Z,992.65
2018-12-22T07:24:18.644Z,992.87
2018-12-22T07:27:48.726Z,993.29
2018-12-22T07:31:18.950Z,993.79
2018-12-22T07:34:49.119Z,994.3
2018-12-22T07:38:19.340Z,994.88
2018-12-22T07:41:49.291Z,995.32
2018-12-22T07:45:19.362Z,995.19
2018-12-22T07:48:49.345Z,995.33
2018-12-22T07:52:19.404Z,994.92
2018-12-22T07:55:49.545Z,994.94
2018-12-22T07:59:19.537Z,994.89
2018-12-22T08:00:16.837Z,995.67
2018-12-22T08:03:46.868Z,996.26
2018-12-22T08:07:16.889Z,996.78
2018-12-22T08:10:46.866Z,996.76
2018-12-22T08:14:16.981Z,997.31
2018-12-22T08:17:46.982Z,997.45
2018-12-22T08:21:17.134Z,998.14
2018-12-22T08:24:47.196Z,999.03
2018-12-22T08:28:17.316Z,1000.03
2018-12-22T08:31:47.458Z,999.92
2018-12-22T08:35:17.660Z,1000.67
2018-12-22T08:38:47.789Z,1001.58
2018-12-22T08:42:17.931Z,1002.04
2018-12-22T08:45:48.052Z,1002.09
2018-12-22T08:49:18.164Z,1002.69
2018-12-22T08:52:48.183Z,1002.41
2018-12-22T08:56:25.655Z,1002.73
2018-12-22T08:59:55.717Z,1003.46
2018-12-22T09:03:25.788Z,1003.99
2018-12-22T09:06:55.849Z,1003.01
2018-12-22T09:10:26.040Z,1003.36
2018-12-22T09:13:56.122Z,1003.01
2018-12-22T09:17:26.233Z,1003.24
2018-12-22T09:20:56.314Z,1003.17
2018-12-22T09:24:26.356Z,1002.67
2018-12-22T09:27:56.338Z,1003.83
2018-12-22T09:31:26.394Z,1004.34
2018-12-22T09:34:56.390Z,1004.51
2018-12-22T09:38:26.780Z,1004.38
2018-12-22T09:41:56.869Z,1004.73
2018-12-22T09:45:27.030Z,1004.82
2018-12-22T09:48:57.054Z,1005.58
2018-12-22T09:52:27.095Z,1005.2
2018-12-22T09:55:57.111Z,1004.89
2018-12-22T09:59:27.447Z,1005.12
2018-12-22T10:00:16.988Z,1005.01
2018-12-22T10:03:47.099Z,1005.44
2018-12-22T10:07:17.099Z,1005.5
2018-12-22T10:10:47.135Z,1005.45
2018-12-22T10:14:17.123Z,1005.74
2018-12-22T10:17:47.214Z,1005.63
2018-12-22T10:21:17.175Z,1005.63
2018-12-22T10:24:47.167Z,1006.17
2018-12-22T10:28:17.257Z,1006.92
2018-12-22T10:31:47.259Z,1006
2018-12-22T10:35:25.150Z,1005.51
2018-12-22T10:38:55.323Z,1006.58
2018-12-22T10:42:25.343Z,1006.98
2018-12-22T10:45:55.366Z,1006.97
2018-12-22T10:49:25.424Z,1007.28
2018-12-22T10:52:55.347Z,1008.03
2018-12-22T10:56:25.388Z,1008.79
2018-12-22T10:59:55.328Z,1009.48
2018-12-22T11:03:25.410Z,1009.71
2018-12-22T11:06:55.432Z,1010.31
2018-12-22T11:10:26.283Z,1009.86
2018-12-22T11:13:56.364Z,1009.4
2018-12-22T11:17:26.386Z,1010.23
2018-12-22T11:20:56.417Z,1009.89
2018-12-22T11:24:26.508Z,1010.09
2018-12-22T11:27:56.560Z,1011.27
2018-12-22T11:31:34.838Z,1012.81
2018-12-22T11:35:05.232Z,1012.97
2018-12-22T11:38:35.384Z,1012.99
2018-12-22T11:42:05.655Z,1015.56
2018-12-22T11:45:35.816Z,1017.63
2018-12-22T11:49:29.123Z,1019.41
2018-12-22T11:52:59.189Z,1019.8
2018-12-22T11:56:29.282Z,1019.67
2018-12-22T11:59:59.502Z,1020.92
2018-12-22T12:00:17.089Z,1021.25
2018-12-22T12:03:47.054Z,1022.21
2018-12-22T12:07:17.088Z,1023.54
2018-12-22T12:10:47.107Z,1023.11
2018-12-22T12:14:17.120Z,1022.25
2018-12-22T12:20:13.920Z,1023.5
2018-12-22T12:23:44.003Z,1022.69
2018-12-22T12:27:14.064Z,1021.52
2018-12-22T12:30:44.055Z,1021.67
2018-12-22T12:34:14.061Z,1021.87
2018-12-22T12:37:44.028Z,1020.97
2018-12-22T12:41:14.067Z,1019.9
2018-12-22T12:44:44.340Z,1020.67
2018-12-22T12:48:14.431Z,1019.57
2018-12-22T12:51:44.483Z,1019.73
2018-12-22T12:55:14.657Z,1019.16
2018-12-22T12:58:44.746Z,1018.21
2018-12-22T13:02:14.978Z,1017.55
2018-12-22T13:05:45.010Z,1016.88
2018-12-22T13:09:15.898Z,1016.61
2018-12-22T13:12:54.473Z,1017.09
2018-12-22T13:16:24.646Z,1016.15
2018-12-22T13:19:54.742Z,1015.96
2018-12-22T13:23:24.797Z,1016.3
2018-12-22T13:26:54.828Z,1016.56
2018-12-22T13:30:24.950Z,1016.71
2018-12-22T13:33:54.911Z,1015.78
2018-12-22T13:37:25.032Z,1014.72
2018-12-22T13:40:54.994Z,1013.83
2018-12-22T13:44:25.115Z,1012.64
2018-12-22T13:47:55.474Z,1012.32
2018-12-22T13:51:25.641Z,1012.3
2018-12-22T13:54:55.558Z,1012.3
2018-12-22T13:58:25.840Z,1012.79
2018-12-22T14:00:16.450Z,1013.21
2018-12-22T14:03:46.523Z,1013
2018-12-22T14:07:16.540Z,1012.54
2018-12-22T14:10:46.745Z,1011.8
2018-12-22T14:14:19.646Z,1011.94
2018-12-22T14:17:57.121Z,1011.38
2018-12-22T14:21:27.579Z,1010.87
2018-12-22T14:24:58.691Z,1010.32
2018-12-22T14:28:28.683Z,1010.21
2018-12-22T14:31:58.803Z,1010.37
2018-12-22T14:35:35.884Z,1010.23
2018-12-22T14:39:06.996Z,1010.15
2018-12-22T14:42:37.071Z,1009.84
2018-12-22T14:46:07.059Z,1009.98
2018-12-22T14:49:37.220Z,1010.55
2018-12-22T14:53:07.252Z,1010.87
2018-12-22T14:56:40.162Z,1011.11
2018-12-22T15:00:10.733Z,1011.25
2018-12-22T15:03:40.955Z,1011.76
2018-12-22T15:07:11.126Z,1012.01
2018-12-22T15:10:41.047Z,1012.59
2018-12-22T15:14:11.079Z,1012.21
2018-12-22T15:17:41.120Z,1012.65
2018-12-22T15:21:11.182Z,1012.63
2018-12-22T15:24:41.303Z,1012.85
2018-12-22T15:28:11.354Z,1013.51
2018-12-22T15:31:41.465Z,1013.71
2018-12-22T15:35:11.630Z,1013.63
2018-12-22T15:38:41.765Z,1014.02
2018-12-22T15:42:11.749Z,1013.84
2018-12-22T15:45:41.703Z,1013.73
2018-12-22T15:49:12.972Z,1013.82
2018-12-22T15:52:43.303Z,1014.12
2018-12-22T15:56:13.264Z,1014.21
2018-12-22T15:59:43.285Z,1014.18
2018-12-22T16:00:16.428Z,1014.07
2018-12-22T16:03:46.617Z,1013.71
2018-12-22T16:07:17.699Z,1013.85
2018-12-22T16:10:47.780Z,1013.7
2018-12-22T16:14:17.811Z,1013.35
2018-12-22T16:17:47.944Z,1012.78
2018-12-22T16:21:17.844Z,1012.64
2018-12-22T16:24:47.855Z,1012.33
2018-12-22T16:28:24.957Z,1012.31
2018-12-22T16:31:55.171Z,1012.11
2018-12-22T16:35:25.260Z,1012.4
2018-12-22T16:38:55.331Z,1012.31
2018-12-22T16:42:25.441Z,1012.38
2018-12-22T16:45:55.453Z,1012.4
2018-12-22T16:49:25.475Z,1012.08
2018-12-22T16:52:55.626Z,1012.61
2018-12-22T16:56:25.757Z,1012.68
2018-12-22T16:59:55.787Z,1012.73
2018-12-22T17:03:26.021Z,1012.62
2018-12-22T17:06:55.992Z,1012.62
2018-12-22T17:10:33.183Z,1012.97
2018-12-22T17:14:03.317Z,1013.01
2018-12-22T17:17:33.305Z,1013.03
2018-12-22T17:21:09.577Z,1013.21
2018-12-22T17:24:51.788Z,1013.22
2018-12-22T17:28:28.298Z,1013.26
2018-12-22T17:31:58.681Z,1013.06
2018-12-22T17:35:28.763Z,1012.91
2018-12-22T17:38:58.854Z,1012.94
2018-12-22T17:42:28.956Z,1012.74
2018-12-22T17:45:58.987Z,1012.98
2018-12-22T17:49:29.004Z,1012.9
2018-12-22T17:52:59.716Z,1012.63
2018-12-22T17:56:29.801Z,1012.83
2018-12-22T17:59:59.972Z,1012.75
2018-12-22T18:00:16.683Z,1012.75
2018-12-22T18:03:46.685Z,1012.88
2018-12-22T18:07:16.651Z,1012.72
2018-12-22T18:10:46.717Z,1012.85
2018-12-22T18:14:16.618Z,1013.11
2018-12-22T18:17:46.739Z,1013.34
2018-12-22T18:21:16.843Z,1013.5
2018-12-22T18:24:47.050Z,1014.15
2018-12-22T18:28:17.113Z,1014.11
2018-12-22T18:31:47.224Z,1013.96
2018-12-22T18:35:17.265Z,1014.08
2018-12-22T18:38:47.257Z,1013.9
2018-12-22T18:42:17.432Z,1014.2
2018-12-22T18:45:47.490Z,1014.13
2018-12-22T18:49:17.389Z,1013.95
2018-12-22T18:52:47.638Z,1014.15
2018-12-22T18:56:17.859Z,1014.56
2018-12-22T18:59:47.851Z,1014.41
2018-12-22T19:03:17.866Z,1014.24
2018-12-22T19:06:48.058Z,1015.05
2018-12-22T19:10:22.060Z,1014.91
2018-12-22T19:13:52.121Z,1014.96
2018-12-22T19:17:22.144Z,1014.64
2018-12-22T19:20:52.794Z,1014.82
2018-12-22T19:24:22.675Z,1014.82
2018-12-22T19:27:52.776Z,1014.97
2018-12-22T19:31:22.821Z,1015.64
2018-12-22T19:34:52.868Z,1015.77
2018-12-22T19:38:22.922Z,1015.79
2018-12-22T19:41:52.951Z,1016.02
2018-12-22T19:45:22.993Z,1016.13
2018-12-22T19:48:53.084Z,1016.59
2018-12-22T19:52:23.015Z,1016.72
2018-12-22T19:55:53.057Z,1016.9
2018-12-22T19:59:23.318Z,1017.05
2018-12-22T20:00:16.769Z,1017.25
2018-12-22T20:03:46.770Z,1017.16
2018-12-22T20:07:16.901Z,1017.65
2018-12-22T20:10:46.980Z,1017.82
2018-12-22T20:14:17.034Z,1017.61
2018-12-22T20:17:47.106Z,1017.67
2018-12-22T20:21:17.357Z,1018.12
2018-12-22T20:24:47.438Z,1017.92
2018-12-22T20:28:17.509Z,1018.07
2018-12-22T20:31:47.591Z,1018.15
2018-12-22T20:35:17.682Z,1018.09
2018-12-22T20:38:47.724Z,1017.9
2018-12-22T20:42:17.692Z,1018.06
2018-12-22T20:45:47.766Z,1018.24
2018-12-22T20:49:17.827Z,1018.13
2018-12-22T20:52:47.929Z,1018.23
2018-12-22T20:56:17.880Z,1018.03
2018-12-22T20:59:48.072Z,1017.18
2018-12-22T21:03:19.206Z,1017.84
2018-12-22T21:06:49.305Z,1017.92
2018-12-22T21:10:19.237Z,1018.48
2018-12-22T21:13:49.205Z,1018.62
2018-12-22T21:17:19.139Z,1018.94
2018-12-22T21:20:49.171Z,1019.45
2018-12-22T21:24:19.236Z,1019.48
2018-12-22T21:27:49.283Z,1019.82
2018-12-22T21:31:19.263Z,1019.7
2018-12-22T21:34:49.396Z,1019.43
2018-12-22T21:38:19.497Z,1019.51
2018-12-22T21:41:49.365Z,1019.46
2018-12-22T21:45:19.439Z,1019.53
2018-12-22T21:48:49.472Z,1019.19
2018-12-22T21:52:19.524Z,1018.93
2018-12-22T21:55:49.635Z,1019.13
2018-12-22T21:59:19.639Z,1019.35
2018-12-22T22:00:17.646Z,1019.08
2018-12-22T22:03:47.759Z,1019.41
2018-12-22T22:07:17.930Z,1019.26
2018-12-22T22:10:48.131Z,1018.96
2018-12-22T22:14:18.148Z,1018.9
2018-12-22T22:17:48.394Z,1018.57
2018-12-22T22:21:18.356Z,1018.31
2018-12-22T22:24:48.567Z,1018.18
2018-12-22T22:28:18.640Z,1018.52
2018-12-22T22:31:48.750Z,1018.24
2018-12-22T22:35:18.942Z,1018.24
2018-12-22T22:38:48.918Z,1017.9
2018-12-22T22:42:19.164Z,1018
2018-12-22T22:45:49.175Z,1017.86
2018-12-22T22:49:19.308Z,1018.13
2018-12-22T22:52:49.396Z,1017.69
2018-12-22T22:56:19.450Z,1017.56
2018-12-22T22:59:49.511Z,1017.51
2018-12-22T23:03:19.672Z,1017.74
2018-12-22T23:06:49.789Z,1017.66
2018-12-22T23:10:19.775Z,1017.98
2018-12-22T23:13:49.867Z,1017.94
2018-12-22T23:17:19.997Z,1018.2
2018-12-22T23:20:50.069Z,1018.43
2018-12-22T23:24:20.173Z,1018.21
2018-12-22T23:27:50.161Z,1018.02
2018-12-22T23:31:20.172Z,1018.17
2018-12-22T23:34:50.164Z,1018.2
2018-12-22T23:38:20.155Z,1018.41
2018-12-22T23:41:50.146Z,1018.21
2018-12-22T23:45:20.258Z,1018.42
2018-12-22T23:48:50.330Z,1018.5
2018-12-22T23:52:20.273Z,1017.97
2018-12-22T23:55:50.323Z,1018.16
2018-12-22T23:59:20.467Z,1018.06
